Startpagina
METAR-TAF:

METAR-TAF

Vliegvelden :

Córdoba, Argentinië

breedte: 31-19S, lengte: 064-13W, hoogte: 484 m

Actueel weer

Dit bericht is 1 uur en het 13 minuten geleden gemaakt, om 01:00 UTC
Wind 3 kt uit het zuidoosten
Temperatuur 9°C
Vochtigheid 81%
Druk 1014 hPa
Zicht 10 km of meer
Verspreide wolken op 1900 ft
Gebroken wolken op 2500 ft

METAR: SACO 190100Z 14003KT 9999 SCT019 BKN025 09/06 Q1014 NOSIG

Tijdstip: 23:13 (02:13 UTC)

Verwachting

Dit bericht is 3 uur en het 13 minuten geleden gemaakt, om 23:00 UTC
Verwachting geldig van 19 om 00 UTC tot 19 om 24 UTC
Wind 5 kt uit het zuiden
Zicht: 7000 m
Geheel bewolkt op 1000 ft
Wijzigt naar
van 19 om 05 UTC tot 19 om 08 UTC
Zicht: 3000 m
Geheel bewolkt op 500 ft
motregen, nevel
Wijzigt naar
van 19 om 13 UTC tot 19 om 16 UTC
Wind 10 kt uit het zuiden
Zicht: 7000 m
Geheel bewolkt op 1500 ft

TAF: SACO 182300Z 1900/1924 18005KT 7000 OVC010 TX08/1918Z TN05/1910Z BECMG 1905/1908 3000 DZ BR OVC005 BECMG 1913/1916 18010KT 7000 OVC015

Waarnemingen en weersverwachtingen van meer dan 4000 vliegvelden (METAR en TAF).

De beschikbare stations zijn de gele en rode punten op de kaart.

Ga met uw muis naar het station om de naam te zien.

Klik dan om waarnemingen en weersverwachtingen te zien.

kaart wijzigen: klik op de groene knoppen met een zwart kruis om in te zoomen, op de groene knop met een streepje om uit te zoomen of op de groene pijlen voor aangrenzende kaarten.


METAR-TAF: